Time;durP1;ratioP1;P1;durP2;ratioP2;P2;SDS_P1;SDS_P2;PMS_P1;PMS_P2;Temp;Humidity;BMP_temperature;BMP_pressure;BME280_temperature;BME280_humidity;BME280_pressure;Samples;Min_cycle;Max_cycle;Signal;HPM_P1;HPM_P2
2022/05/19 00:01:23;;;;;;;;;7.25;4.00;;;;;;;;4959470;28;46474;-81
2022/05/19 00:03:48;;;;;;;;;4.75;4.75;;;;;;;;4962249;28;45990;-81
2022/05/19 00:06:14;;;;;;;;;4.00;4.00;;;;;;;;4960221;28;45410;-82
2022/05/19 00:08:39;;;;;;;;;6.00;6.00;;;;;;;;4961931;28;45520;-82
2022/05/19 00:11:08;;;;;;;;;4.00;4.00;;;;;;;;4958773;28;46453;-82
2022/05/19 00:13:36;;;;;;;;;5.33;4.00;;;;;;;;4957826;28;47342;-79
2022/05/19 00:16:01;;;;;;;;;6.00;5.00;;;;;;;;4957781;28;45497;-80
2022/05/19 00:18:27;;;;;;;;;3.00;3.00;;;;;;;;4959434;28;45564;-80
2022/05/19 00:20:52;;;;;;;;;7.33;6.00;;;;;;;;4932201;28;45745;-79
2022/05/19 00:23:18;;;;;;;;;6.67;6.67;;;;;;;;4948375;28;47034;-78
2022/05/19 00:25:43;;;;;;;;;4.67;3.33;;;;;;;;4953120;28;45195;-80
2022/05/19 00:28:09;;;;;;;;;4.00;4.00;;;;;;;;4950608;28;45509;-79
2022/05/19 00:30:35;;;;;;;;;4.67;4.00;;;;;;;;4953826;28;45183;-79
2022/05/19 00:33:00;;;;;;;;;5.00;5.00;;;;;;;;4954555;28;45439;-80
2022/05/19 00:35:26;;;;;;;;;4.33;4.33;;;;;;;;4955153;28;44766;-80
2022/05/19 00:37:51;;;;;;;;;7.33;6.00;;;;;;;;4956241;28;45512;-81
2022/05/19 00:40:18;;;;;;;;;7.33;5.00;;;;;;;;4954510;28;45960;-79
2022/05/19 00:42:44;;;;;;;;;5.67;5.67;;;;;;;;4958177;28;47029;-81
2022/05/19 00:45:17;;;;;;;;;7.67;5.33;;;;;;;;4958493;28;44706;-80
2022/05/19 00:47:52;;;;;;;;;6.00;6.00;;;;;;;;4959592;28;45430;-78
2022/05/19 00:50:20;;;;;;;;;6.67;6.67;;;;;;;;4978337;28;45303;-81
2022/05/19 00:52:46;;;;;;;;;8.33;7.33;;;;;;;;4975180;28;46642;-81
2022/05/19 00:55:20;;;;;;;;;8.00;6.67;;;;;;;;4972745;28;45570;-80
2022/05/19 00:57:49;;;;;;;;;7.00;5.33;;;;;;;;4964423;28;45855;-78
2022/05/19 01:00:17;;;;;;;;;5.67;5.00;;;;;;;;4959010;28;46598;-77
2022/05/19 01:02:47;;;;;;;;;7.00;6.67;;;;;;;;4957500;28;45668;-79
2022/05/19 01:05:15;;;;;;;;;6.00;6.00;;;;;;;;4958867;28;46050;-78
2022/05/19 01:08:09;;;;;;;;;7.33;7.33;;;;;;;;4959500;28;45744;-81
2022/05/19 01:10:37;;;;;;;;;8.67;8.00;;;;;;;;4942669;28;46330;-81
2022/05/19 01:13:02;;;;;;;;;11.33;8.33;;;;;;;;4963511;28;45302;-80
2022/05/19 01:15:28;;;;;;;;;8.00;8.00;;;;;;;;4951913;28;45140;-80
2022/05/19 01:17:54;;;;;;;;;6.67;6.67;;;;;;;;4941760;28;45300;-81
2022/05/19 01:20:21;;;;;;;;;8.33;8.00;;;;;;;;4942114;28;45430;-80
2022/05/19 01:23:05;;;;;;;;;7.00;6.33;;;;;;;;4923430;28;46586;-82
2022/05/19 01:25:51;;;;;;;;;7.33;6.00;;;;;;;;4925255;28;45481;-81
2022/05/19 01:28:17;;;;;;;;;9.33;7.00;;;;;;;;4959891;28;45686;-80
2022/05/19 01:30:42;;;;;;;;;9.33;9.00;;;;;;;;4960098;28;45365;-81
2022/05/19 01:33:08;;;;;;;;;13.33;9.67;;;;;;;;4948173;28;46790;-80
2022/05/19 01:35:33;;;;;;;;;18.67;15.67;;;;;;;;4962268;28;45426;-81
2022/05/19 01:38:04;;;;;;;;;7.67;7.67;;;;;;;;4943114;28;45537;-82
2022/05/19 01:40:39;;;;;;;;;9.33;8.00;;;;;;;;4961311;28;45803;-78
2022/05/19 01:43:30;;;;;;;;;9.67;8.00;;;;;;;;4941892;28;47773;-79
2022/05/19 01:46:02;;;;;;;;;9.67;8.00;;;;;;;;4936298;28;45430;-79
2022/05/19 01:48:45;;;;;;;;;9.67;8.67;;;;;;;;4961976;28;45555;-79
2022/05/19 01:51:11;;;;;;;;;9.67;8.67;;;;;;;;4945964;28;46813;-81
2022/05/19 01:53:36;;;;;;;;;8.67;8.67;;;;;;;;4947931;28;47712;-80
2022/05/19 01:56:10;;;;;;;;;13.67;9.33;;;;;;;;4947222;28;45331;-80
2022/05/19 01:58:54;;;;;;;;;10.67;9.67;;;;;;;;4943860;28;45356;-79
2022/05/19 02:01:24;;;;;;;;;12.00;10.33;;;;;;;;4943990;28;46609;-81
2022/05/19 02:03:52;;;;;;;;;8.67;5.33;;;;;;;;4944269;28;46857;-82
2022/05/19 02:06:27;;;;;;;;;10.67;9.33;;;;;;;;4961509;28;45643;-80
2022/05/19 02:08:59;;;;;;;;;11.67;9.67;;;;;;;;4945336;28;45340;-79
2022/05/19 02:11:29;;;;;;;;;12.33;10.33;;;;;;;;4961964;28;45073;-79
2022/05/19 02:13:56;;;;;;;;;14.33;12.33;;;;;;;;4947174;28;47266;-80
2022/05/19 02:16:22;;;;;;;;;10.33;9.33;;;;;;;;4966913;28;45387;-78
2022/05/19 02:18:48;;;;;;;;;13.00;13.00;;;;;;;;4972630;28;45297;-78
2022/05/19 02:21:16;;;;;;;;;14.00;12.67;;;;;;;;4945919;28;46524;-81
2022/05/19 02:23:42;;;;;;;;;12.67;9.67;;;;;;;;4962851;28;46484;-81
2022/05/19 02:26:07;;;;;;;;;12.33;10.67;;;;;;;;4945094;28;45497;-81
2022/05/19 02:28:35;;;;;;;;;9.67;9.00;;;;;;;;4962474;28;45402;-80
2022/05/19 02:31:01;;;;;;;;;10.67;10.67;;;;;;;;4958500;28;45519;-80
2022/05/19 02:33:29;;;;;;;;;12.33;11.67;;;;;;;;4956036;28;45462;-82
2022/05/19 02:35:54;;;;;;;;;10.33;10.33;;;;;;;;4956614;28;45734;-81
2022/05/19 02:38:20;;;;;;;;;12.67;12.67;;;;;;;;4955992;28;45497;-80
2022/05/19 02:40:46;;;;;;;;;10.33;10.33;;;;;;;;4956451;28;45538;-82
2022/05/19 02:43:15;;;;;;;;;9.67;9.67;;;;;;;;4956687;28;45719;-82
2022/05/19 02:45:41;;;;;;;;;13.67;12.00;;;;;;;;4938940;28;45332;-80
2022/05/19 02:48:07;;;;;;;;;12.00;12.00;;;;;;;;4957821;28;45963;-80
2022/05/19 02:50:32;;;;;;;;;14.00;12.33;;;;;;;;4958238;28;45728;-79
2022/05/19 02:52:58;;;;;;;;;14.67;14.00;;;;;;;;4960456;28;45902;-79
2022/05/19 02:55:23;;;;;;;;;11.00;11.00;;;;;;;;4964841;28;45534;-80
2022/05/19 02:57:49;;;;;;;;;14.33;12.67;;;;;;;;4960946;28;45402;-81
2022/05/19 03:00:17;;;;;;;;;10.67;10.00;;;;;;;;4960843;28;45770;-78
2022/05/19 03:02:43;;;;;;;;;13.67;12.67;;;;;;;;4959245;28;45541;-81
2022/05/19 03:05:10;;;;;;;;;10.33;9.33;;;;;;;;4960481;28;45477;-80
2022/05/19 03:07:35;;;;;;;;;10.67;10.00;;;;;;;;4942053;28;45429;-82
2022/05/19 03:10:01;;;;;;;;;16.67;12.00;;;;;;;;4959195;28;45614;-80
2022/05/19 03:12:26;;;;;;;;;15.67;13.00;;;;;;;;4940839;28;45440;-80
2022/05/19 03:14:52;;;;;;;;;10.00;9.67;;;;;;;;4958305;28;45480;-78
2022/05/19 03:17:17;;;;;;;;;11.67;8.67;;;;;;;;4941647;28;45843;-80
2022/05/19 03:19:42;;;;;;;;;10.33;9.67;;;;;;;;4941560;28;45791;-83
2022/05/19 03:22:08;;;;;;;;;11.00;9.67;;;;;;;;4942141;28;46092;-83
2022/05/19 03:24:33;;;;;;;;;12.67;11.33;;;;;;;;4942227;28;45501;-80
2022/05/19 03:26:59;;;;;;;;;13.33;11.67;;;;;;;;4942696;28;45422;-81
2022/05/19 03:29:25;;;;;;;;;9.00;9.00;;;;;;;;4961114;28;45706;-81
2022/05/19 03:31:51;;;;;;;;;9.67;9.33;;;;;;;;4945344;28;47138;-82
2022/05/19 03:34:17;;;;;;;;;12.00;9.67;;;;;;;;4944399;28;45296;-83
2022/05/19 03:36:46;;;;;;;;;11.33;9.33;;;;;;;;4941000;28;45408;-79
2022/05/19 03:39:12;;;;;;;;;13.00;13.00;;;;;;;;4957041;28;46155;-78
2022/05/19 03:41:37;;;;;;;;;7.67;5.33;;;;;;;;4944512;28;48471;-81
2022/05/19 03:44:02;;;;;;;;;12.67;12.00;;;;;;;;4942251;28;45505;-79
2022/05/19 03:46:28;;;;;;;;;11.00;11.00;;;;;;;;4943297;28;45432;-79
2022/05/19 03:48:53;;;;;;;;;9.00;9.00;;;;;;;;4943641;28;45453;-78
2022/05/19 03:51:23;;;;;;;;;10.67;9.67;;;;;;;;4943866;28;47015;-80
2022/05/19 03:53:49;;;;;;;;;12.67;10.33;;;;;;;;4946482;28;45678;-77
2022/05/19 03:56:15;;;;;;;;;9.67;9.67;;;;;;;;4944686;28;45203;-78
2022/05/19 03:58:40;;;;;;;;;9.67;9.67;;;;;;;;4941141;28;45942;-78
2022/05/19 04:01:06;;;;;;;;;12.00;12.00;;;;;;;;4940615;28;46147;-82
2022/05/19 04:03:31;;;;;;;;;11.33;11.33;;;;;;;;4940939;28;45734;-79
2022/05/19 04:05:56;;;;;;;;;13.33;10.67;;;;;;;;4944640;28;45507;-80
2022/05/19 04:08:22;;;;;;;;;10.00;8.67;;;;;;;;4941720;28;45900;-80
2022/05/19 04:10:48;;;;;;;;;16.33;14.00;;;;;;;;4939945;28;47006;-79
2022/05/19 04:13:14;;;;;;;;;11.33;11.33;;;;;;;;4942027;28;45467;-80
2022/05/19 04:15:39;;;;;;;;;12.33;11.33;;;;;;;;4926948;28;45476;-80
2022/05/19 04:18:06;;;;;;;;;9.33;9.33;;;;;;;;4923299;28;45707;-79
2022/05/19 04:20:32;;;;;;;;;8.33;7.33;;;;;;;;4921118;28;47039;-80
2022/05/19 04:22:58;;;;;;;;;13.00;11.00;;;;;;;;4906721;28;45731;-79
2022/05/19 04:25:23;;;;;;;;;9.67;9.67;;;;;;;;4917515;28;45420;-80
2022/05/19 04:27:49;;;;;;;;;10.00;10.00;;;;;;;;4918355;28;45376;-81
2022/05/19 04:30:15;;;;;;;;;10.33;10.33;;;;;;;;4920963;28;45429;-80
2022/05/19 04:32:40;;;;;;;;;11.00;10.67;;;;;;;;4920036;28;45707;-79
2022/05/19 04:35:06;;;;;;;;;10.33;10.33;;;;;;;;4933482;28;45734;-80
2022/05/19 04:37:31;;;;;;;;;11.67;11.67;;;;;;;;4952052;28;45838;-81
2022/05/19 04:39:59;;;;;;;;;13.00;13.00;;;;;;;;4949277;28;47502;-82
2022/05/19 04:42:24;;;;;;;;;10.67;9.00;;;;;;;;4953583;28;45773;-79
2022/05/19 04:44:49;;;;;;;;;14.67;14.67;;;;;;;;4936927;28;45564;-81
2022/05/19 04:47:14;;;;;;;;;11.00;11.00;;;;;;;;4943287;28;45520;-80
2022/05/19 04:49:40;;;;;;;;;10.67;9.67;;;;;;;;4934862;28;46937;-80
2022/05/19 04:52:06;;;;;;;;;11.67;11.67;;;;;;;;4936584;28;45398;-80
2022/05/19 04:54:31;;;;;;;;;12.33;10.00;;;;;;;;4937440;28;45330;-81
2022/05/19 04:56:56;;;;;;;;;12.67;12.67;;;;;;;;4952315;28;45390;-79
2022/05/19 04:59:21;;;;;;;;;12.00;11.33;;;;;;;;4952323;28;45379;-80
2022/05/19 05:01:48;;;;;;;;;11.33;10.33;;;;;;;;4964355;28;44723;-78
2022/05/19 05:04:14;;;;;;;;;14.67;10.00;;;;;;;;4955457;28;44784;-79
2022/05/19 05:06:40;;;;;;;;;13.67;12.00;;;;;;;;4941443;28;46205;-79
2022/05/19 05:09:06;;;;;;;;;13.33;11.67;;;;;;;;4949988;28;47041;-78
2022/05/19 05:11:31;;;;;;;;;15.33;10.33;;;;;;;;4960046;28;45515;-80
2022/05/19 05:13:57;;;;;;;;;11.00;9.67;;;;;;;;4943104;28;45748;-82
2022/05/19 05:16:23;;;;;;;;;13.00;11.67;;;;;;;;4946688;28;46227;-81
2022/05/19 05:18:48;;;;;;;;;13.33;10.33;;;;;;;;4947590;28;46462;-82
2022/05/19 05:21:13;;;;;;;;;11.00;10.00;;;;;;;;4945689;28;45739;-79
2022/05/19 05:23:42;;;;;;;;;10.00;10.00;;;;;;;;4962577;28;45492;-79
2022/05/19 05:26:09;;;;;;;;;12.33;9.33;;;;;;;;4967898;28;45389;-80
2022/05/19 05:28:35;;;;;;;;;9.00;9.00;;;;;;;;4967032;28;46446;-79
2022/05/19 05:31:01;;;;;;;;;10.67;10.67;;;;;;;;4960579;28;45422;-79
2022/05/19 05:33:26;;;;;;;;;9.67;9.00;;;;;;;;5082578;23;48560;-79
2022/05/19 05:35:51;;;;;;;;;11.67;11.67;;;;;;;;4934806;28;45918;-76
2022/05/19 05:38:17;;;;;;;;;13.00;12.00;;;;;;;;4918685;28;47000;-75
2022/05/19 05:40:43;;;;;;;;;12.00;12.00;;;;;;;;4934442;28;45890;-78
2022/05/19 05:43:13;;;;;;;;;15.67;14.67;;;;;;;;4933937;28;45411;-78
2022/05/19 05:45:41;;;;;;;;;9.33;9.33;;;;;;;;4925230;28;45785;-77
2022/05/19 05:48:08;;;;;;;;;10.00;10.00;;;;;;;;4939941;28;46211;-77
2022/05/19 05:50:43;;;;;;;;;9.00;7.67;;;;;;;;4942223;28;45399;-84
2022/05/19 05:53:08;;;;;;;;;14.33;12.00;;;;;;;;4927682;28;45431;-82
2022/05/19 05:55:35;;;;;;;;;10.00;10.00;;;;;;;;4916773;28;45929;-81
2022/05/19 05:58:03;;;;;;;;;12.67;12.67;;;;;;;;4929466;28;47321;-83
2022/05/19 06:00:29;;;;;;;;;14.33;12.67;;;;;;;;4928298;28;45843;-79
2022/05/19 06:02:54;;;;;;;;;13.67;9.67;;;;;;;;4923468;28;45889;-75
2022/05/19 06:05:19;;;;;;;;;13.00;12.33;;;;;;;;4927417;28;45818;-76
2022/05/19 06:07:45;;;;;;;;;13.00;12.67;;;;;;;;4933130;28;45931;-77
2022/05/19 06:10:10;;;;;;;;;12.67;10.67;;;;;;;;4927656;28;45568;-81
2022/05/19 06:12:36;;;;;;;;;10.67;10.67;;;;;;;;4923056;28;45689;-78
2022/05/19 06:15:02;;;;;;;;;9.00;9.00;;;;;;;;4929998;28;45791;-78
2022/05/19 06:17:27;;;;;;;;;10.67;10.33;;;;;;;;4932530;28;46188;-76
2022/05/19 06:19:52;;;;;;;;;10.33;10.33;;;;;;;;4930819;28;45489;-83
2022/05/19 06:22:19;;;;;;;;;17.67;16.33;;;;;;;;4905584;28;45692;-82
2022/05/19 06:24:44;;;;;;;;;25.33;24.33;;;;;;;;4932276;28;45431;-81
2022/05/19 06:27:10;;;;;;;;;14.67;14.67;;;;;;;;4923435;28;46078;-82
2022/05/19 06:29:37;;;;;;;;;24.50;24.50;;;;;;;;4920257;28;45687;-85
2022/05/19 06:32:02;;;;;;;;;14.00;12.33;;;;;;;;4902987;28;45411;-83
2022/05/19 06:34:27;;;;;;;;;21.00;19.67;;;;;;;;4935807;28;45581;-83
2022/05/19 06:36:53;;;;;;;;;29.33;28.33;;;;;;;;4930279;28;46519;-81
2022/05/19 06:39:19;;;;;;;;;14.00;10.67;;;;;;;;4925840;28;45600;-81
2022/05/19 06:42:02;;;;;;;;;15.33;14.67;;;;;;;;4934496;28;45693;-82
2022/05/19 06:44:33;;;;;;;;;17.67;14.00;;;;;;;;4917997;28;46504;-83
2022/05/19 06:47:03;;;;;;;;;15.33;13.33;;;;;;;;4935422;28;45449;-85
2022/05/19 06:49:29;;;;;;;;;19.67;16.00;;;;;;;;4921155;28;45459;-82
2022/05/19 06:51:54;;;;;;;;;16.00;12.67;;;;;;;;4916532;28;45969;-80
2022/05/19 06:54:20;;;;;;;;;17.67;16.67;;;;;;;;4921835;28;45700;-81
2022/05/19 06:56:46;;;;;;;;;14.67;14.33;;;;;;;;4912002;28;46963;-79
2022/05/19 06:59:11;;;;;;;;;14.33;14.33;;;;;;;;4924662;28;45599;-79
2022/05/19 07:01:37;;;;;;;;;14.67;13.67;;;;;;;;4925673;28;45541;-80
2022/05/19 07:04:02;;;;;;;;;11.33;11.33;;;;;;;;4924946;28;45898;-80
2022/05/19 07:06:27;;;;;;;;;12.67;11.67;;;;;;;;4926423;28;45522;-81
2022/05/19 07:08:53;;;;;;;;;14.00;14.00;;;;;;;;4904915;28;45700;-80
2022/05/19 07:11:25;;;;;;;;;21.00;17.67;;;;;;;;4924973;28;45890;-80
2022/05/19 07:13:54;;;;;;;;;12.67;12.67;;;;;;;;4924121;28;45553;-77
2022/05/19 07:16:19;;;;;;;;;17.67;15.33;;;;;;;;4908061;28;46943;-79
2022/05/19 07:18:44;;;;;;;;;16.00;13.67;;;;;;;;4924907;28;45793;-76
2022/05/19 07:21:10;;;;;;;;;12.67;12.33;;;;;;;;4912240;28;45837;-78
2022/05/19 07:23:36;;;;;;;;;11.33;11.33;;;;;;;;4912814;28;45771;-77
2022/05/19 07:26:01;;;;;;;;;18.00;15.00;;;;;;;;4913275;28;48114;-76
2022/05/19 07:28:26;;;;;;;;;13.00;12.00;;;;;;;;4931426;28;45751;-79
2022/05/19 07:30:51;;;;;;;;;14.00;13.00;;;;;;;;4931098;28;45775;-77
2022/05/19 07:33:17;;;;;;;;;14.00;12.33;;;;;;;;4931188;28;45441;-77
2022/05/19 07:35:46;;;;;;;;;15.00;14.00;;;;;;;;4930701;28;45813;-77
2022/05/19 07:38:11;;;;;;;;;12.33;12.33;;;;;;;;4933998;28;45470;-77
2022/05/19 07:40:36;;;;;;;;;19.75;15.75;;;;;;;;4934491;28;45416;-75
2022/05/19 07:45:46;;;;;;;;;11.33;11.33;;;;;;;;4933351;28;45571;-82
2022/05/19 07:48:11;;;;;;;;;9.00;9.00;;;;;;;;4953623;28;45476;-81
2022/05/19 07:50:36;;;;;;;;;11.67;11.67;;;;;;;;4951383;28;45726;-77
2022/05/19 07:53:04;;;;;;;;;12.33;10.00;;;;;;;;4928057;28;45941;-80
2022/05/19 07:55:29;;;;;;;;;10.33;10.33;;;;;;;;4932711;28;46596;-72
2022/05/19 07:57:56;;;;;;;;;12.67;12.67;;;;;;;;4936778;28;45756;-74
2022/05/19 08:00:23;;;;;;;;;9.33;9.33;;;;;;;;4934058;28;45444;-73
2022/05/19 08:02:48;;;;;;;;;12.33;11.67;;;;;;;;4928943;28;45892;-71
2022/05/19 08:05:13;;;;;;;;;9.00;9.00;;;;;;;;4923045;28;45619;-72
2022/05/19 08:07:39;;;;;;;;;8.33;8.33;;;;;;;;4909499;28;45731;-72
2022/05/19 08:10:24;;;;;;;;;10.00;10.00;;;;;;;;4923538;28;45867;-74
2022/05/19 08:15:36;;;;;;;;;9.00;8.67;;;;;;;;4926607;28;45601;-73
2022/05/19 08:18:03;;;;;;;;;7.00;7.00;;;;;;;;4926050;28;45927;-72
2022/05/19 08:20:29;;;;;;;;;8.00;7.33;;;;;;;;4927744;28;45530;-70
2022/05/19 08:22:55;;;;;;;;;7.00;7.00;;;;;;;;4924798;28;45759;-74
2022/05/19 08:25:26;;;;;;;;;8.33;7.00;;;;;;;;4934622;28;46037;-72
2022/05/19 08:27:53;;;;;;;;;7.00;7.00;;;;;;;;4931805;28;45865;-72
2022/05/19 08:30:18;;;;;;;;;7.00;7.00;;;;;;;;4931342;28;45898;-71
2022/05/19 08:32:43;;;;;;;;;7.33;6.67;;;;;;;;4928352;28;45572;-72
2022/05/19 08:35:09;;;;;;;;;7.33;6.33;;;;;;;;4932651;28;45823;-72
2022/05/19 08:37:34;;;;;;;;;7.33;6.67;;;;;;;;4929645;28;45450;-72
2022/05/19 08:40:00;;;;;;;;;6.67;6.67;;;;;;;;4925696;28;45777;-73
2022/05/19 08:42:27;;;;;;;;;6.33;5.33;;;;;;;;4928920;28;45555;-74
2022/05/19 08:44:55;;;;;;;;;5.00;5.00;;;;;;;;4900506;28;46833;-74
2022/05/19 08:47:24;;;;;;;;;11.00;7.00;;;;;;;;4925783;28;45898;-71
2022/05/19 08:49:49;;;;;;;;;5.00;5.00;;;;;;;;4920689;28;45870;-74
2022/05/19 08:52:17;;;;;;;;;5.00;4.00;;;;;;;;4922021;28;45710;-80
2022/05/19 08:54:44;;;;;;;;;6.67;5.33;;;;;;;;4931901;28;45820;-72
2022/05/19 08:57:09;;;;;;;;;9.00;5.00;;;;;;;;4927509;28;45515;-72
2022/05/19 08:59:35;;;;;;;;;5.00;5.00;;;;;;;;4932207;28;45545;-70
2022/05/19 09:02:04;;;;;;;;;4.67;4.33;;;;;;;;4932794;28;46023;-73
2022/05/19 09:04:37;;;;;;;;;3.33;3.33;;;;;;;;4934418;28;45639;-72
2022/05/19 09:10:11;;;;;;;;;4.33;4.00;;;;;;;;4916630;28;45792;-73
2022/05/19 09:12:37;;;;;;;;;3.67;3.67;;;;;;;;4914328;28;45752;-73
2022/05/19 09:15:04;;;;;;;;;4.33;4.33;;;;;;;;4908146;28;47421;-72
2022/05/19 09:17:31;;;;;;;;;5.00;5.00;;;;;;;;4934791;28;45931;-81
2022/05/19 09:20:00;;;;;;;;;7.00;6.33;;;;;;;;4936331;28;46071;-82
2022/05/19 09:22:29;;;;;;;;;9.00;7.33;;;;;;;;4937292;28;45581;-81
2022/05/19 09:24:55;;;;;;;;;9.00;7.00;;;;;;;;4934516;28;45401;-79
2022/05/19 09:27:22;;;;;;;;;10.00;8.00;;;;;;;;4925832;28;45454;-79
2022/05/19 09:29:49;;;;;;;;;7.00;7.00;;;;;;;;4936303;28;45913;-81
2022/05/19 09:32:16;;;;;;;;;7.00;7.00;;;;;;;;4924841;28;47011;-82
2022/05/19 09:34:46;;;;;;;;;6.67;6.67;;;;;;;;4932081;28;45546;-81
2022/05/19 09:37:16;;;;;;;;;7.33;6.00;;;;;;;;4925553;28;45844;-83
2022/05/19 09:39:52;;;;;;;;;7.00;6.00;;;;;;;;4929664;28;45903;-81
2022/05/19 09:42:20;;;;;;;;;4.00;4.00;;;;;;;;4935150;28;45600;-73
2022/05/19 09:44:51;;;;;;;;;7.67;4.67;;;;;;;;4931358;28;45643;-72
2022/05/19 09:47:18;;;;;;;;;4.00;4.00;;;;;;;;4931020;28;45795;-81
2022/05/19 09:49:48;;;;;;;;;4.33;4.33;;;;;;;;4938223;28;45413;-82
2022/05/19 09:52:18;;;;;;;;;3.00;3.00;;;;;;;;4933426;28;45708;-73
2022/05/19 09:54:45;;;;;;;;;6.00;3.00;;;;;;;;4933660;28;46006;-74
2022/05/19 09:57:13;;;;;;;;;3.00;3.00;;;;;;;;4932532;28;45591;-73
2022/05/19 09:59:45;;;;;;;;;2.33;1.67;;;;;;;;4929516;28;45699;-80
2022/05/19 10:02:17;;;;;;;;;2.75;2.75;;;;;;;;4929807;28;45716;-74
2022/05/19 10:04:50;;;;;;;;;1.67;1.67;;;;;;;;4933990;28;45831;-81
2022/05/19 10:07:22;;;;;;;;;2.00;2.00;;;;;;;;4909463;28;46890;-82
2022/05/19 10:09:48;;;;;;;;;1.75;1.00;;;;;;;;4925707;28;45907;-82
2022/05/19 10:12:14;;;;;;;;;1.50;1.50;;;;;;;;4920339;28;46032;-82
2022/05/19 10:14:40;;;;;;;;;1.00;1.00;;;;;;;;4924632;28;45654;-81
2022/05/19 10:17:17;;;;;;;;;2.00;2.00;;;;;;;;4929953;28;45453;-79
2022/05/19 10:19:43;;;;;;;;;0.50;0.50;;;;;;;;4927437;28;45359;-78
2022/05/19 10:22:14;;;;;;;;;1.50;1.50;;;;;;;;4918921;28;45703;-77
2022/05/19 10:24:53;;;;;;;;;2.00;1.00;;;;;;;;4925409;28;45502;-79
2022/05/19 10:32:57;;;;;;;;;0.75;0.75;;;;;;;;4934431;28;45383;-79
2022/05/19 10:35:29;;;;;;;;;0.00;0.00;;;;;;;;4942851;28;45888;-83
2022/05/19 10:37:57;;;;;;;;;2.00;1.00;;;;;;;;4934841;28;45537;-83
2022/05/19 10:40:28;;;;;;;;;1.00;1.00;;;;;;;;4932562;28;45417;-79
2022/05/19 10:43:03;;;;;;;;;7.00;5.67;;;;;;;;4913692;28;45718;-81
2022/05/19 10:45:33;;;;;;;;;3.00;3.00;;;;;;;;4912133;28;48285;-78
2022/05/19 10:48:17;;;;;;;;;0.50;0.50;;;;;;;;4931438;28;45731;-78
2022/05/19 10:50:45;;;;;;;;;0.25;0.25;;;;;;;;4932202;28;45584;-81
2022/05/19 10:53:11;;;;;;;;;1.75;1.75;;;;;;;;4933185;28;45798;-79
2022/05/19 10:55:49;;;;;;;;;2.00;2.00;;;;;;;;4933960;28;47107;-81
2022/05/19 10:58:53;;;;;;;;;7.67;6.33;;;;;;;;4934709;28;45422;-80
2022/05/19 11:01:31;;;;;;;;;0.25;0.25;;;;;;;;4886603;29;45454;-81
2022/05/19 11:04:15;;;;;;;;;2.75;2.75;;;;;;;;4886938;28;45860;-81
2022/05/19 11:06:45;;;;;;;;;1.00;1.00;;;;;;;;4913160;28;47522;-80
2022/05/19 11:09:13;;;;;;;;;1.00;1.00;;;;;;;;4903929;28;46888;-81
2022/05/19 11:11:45;;;;;;;;;0.00;0.00;;;;;;;;4915973;28;45834;-80
2022/05/19 11:14:29;;;;;;;;;1.00;1.00;;;;;;;;4915215;28;45858;-82
2022/05/19 11:16:57;;;;;;;;;0.75;0.75;;;;;;;;4921246;28;47213;-80
2022/05/19 11:19:28;;;;;;;;;0.00;0.00;;;;;;;;4922796;28;45840;-83
2022/05/19 11:22:00;;;;;;;;;1.75;1.75;;;;;;;;4917750;28;45589;-81
2022/05/19 11:24:32;;;;;;;;;0.75;0.75;;;;;;;;4920586;28;47103;-79
2022/05/19 11:27:00;;;;;;;;;1.00;1.00;;;;;;;;4936762;28;45902;-80
2022/05/19 11:29:38;;;;;;;;;1.75;1.75;;;;;;;;4934269;28;45603;-82
2022/05/19 11:32:09;;;;;;;;;1.50;1.50;;;;;;;;4935147;28;45433;-78
2022/05/19 11:34:44;;;;;;;;;1.00;1.00;;;;;;;;4930955;28;45753;-79
2022/05/19 11:37:16;;;;;;;;;1.00;1.00;;;;;;;;4929422;28;45818;-82
2022/05/19 11:40:01;;;;;;;;;1.00;1.00;;;;;;;;4929890;28;45556;-76
2022/05/19 11:42:32;;;;;;;;;1.25;1.25;;;;;;;;4927545;28;45549;-79
2022/05/19 11:44:59;;;;;;;;;2.00;2.00;;;;;;;;4910253;28;47121;-78
2022/05/19 11:55:50;;;;;;;;;1.50;1.00;;;;;;;;4931371;28;45910;-82
2022/05/19 11:58:21;;;;;;;;;0.25;0.25;;;;;;;;4916595;28;45806;-81
2022/05/19 12:00:49;;;;;;;;;2.50;1.25;;;;;;;;4913835;28;45728;-80
2022/05/19 12:03:21;;;;;;;;;3.75;2.25;;;;;;;;4938270;28;45798;-81
2022/05/19 12:05:53;;;;;;;;;1.25;1.25;;;;;;;;4933378;28;47114;-79
2022/05/19 12:08:23;;;;;;;;;2.50;2.50;;;;;;;;4917792;28;46619;-78
2022/05/19 12:10:53;;;;;;;;;3.75;3.75;;;;;;;;4906168;28;46007;-79
2022/05/19 12:13:22;;;;;;;;;2.75;2.75;;;;;;;;4899376;28;45859;-78
2022/05/19 12:16:06;;;;;;;;;3.00;3.00;;;;;;;;4930148;28;46132;-77
2022/05/19 12:18:31;;;;;;;;;2.00;2.00;;;;;;;;4934689;28;47526;-85
2022/05/19 12:21:02;;;;;;;;;0.25;0.00;;;;;;;;4937130;28;45504;-81
2022/05/19 12:23:37;;;;;;;;;1.50;1.50;;;;;;;;4933975;28;45639;-80
2022/05/19 12:26:11;;;;;;;;;1.00;1.00;;;;;;;;4935994;28;45889;-82
2022/05/19 12:28:51;;;;;;;;;1.00;1.00;;;;;;;;4936825;28;45858;-79
2022/05/19 12:34:14;;;;;;;;;2.50;1.00;;;;;;;;4927933;28;45888;-80
2022/05/19 12:36:43;;;;;;;;;1.00;1.00;;;;;;;;4934954;28;46033;-78
2022/05/19 12:39:24;;;;;;;;;1.00;1.00;;;;;;;;4934614;28;45821;-76
2022/05/19 12:41:50;;;;;;;;;1.00;0.25;;;;;;;;4934864;28;45458;-82
2022/05/19 12:44:50;;;;;;;;;2.25;2.00;;;;;;;;4934554;28;45805;-78
2022/05/19 12:47:15;;;;;;;;;1.25;1.25;;;;;;;;4901953;28;45791;-77
2022/05/19 12:50:01;;;;;;;;;1.00;1.00;;;;;;;;4933413;28;45733;-77
2022/05/19 12:52:46;;;;;;;;;3.25;2.25;;;;;;;;4931875;28;45419;-78
2022/05/19 12:55:24;;;;;;;;;1.00;1.00;;;;;;;;4933960;28;45728;-76
2022/05/19 12:57:53;;;;;;;;;0.25;0.25;;;;;;;;4932979;28;45910;-79
2022/05/19 13:00:20;;;;;;;;;2.75;2.75;;;;;;;;4914673;28;47840;-76
2022/05/19 13:03:04;;;;;;;;;2.00;2.00;;;;;;;;4914968;28;45796;-77
2022/05/19 13:05:39;;;;;;;;;1.00;1.00;;;;;;;;4914585;28;45372;-81
2022/05/19 13:08:11;;;;;;;;;5.50;2.25;;;;;;;;4911716;28;45932;-78
2022/05/19 13:10:38;;;;;;;;;2.00;1.50;;;;;;;;4902403;28;46384;-80
2022/05/19 13:13:03;;;;;;;;;2.00;2.00;;;;;;;;4933149;28;45487;-78
2022/05/19 13:15:31;;;;;;;;;0.75;0.75;;;;;;;;4935101;28;45950;-80
2022/05/19 13:17:57;;;;;;;;;1.50;1.50;;;;;;;;4918472;28;45662;-82
2022/05/19 13:20:32;;;;;;;;;1.00;1.00;;;;;;;;4918091;28;45494;-82
2022/05/19 13:23:00;;;;;;;;;3.50;1.25;;;;;;;;4896894;28;45985;-79
2022/05/19 13:25:26;;;;;;;;;2.50;1.00;;;;;;;;4896174;28;45597;-77
2022/05/19 13:30:51;;;;;;;;;2.25;2.25;;;;;;;;4916804;28;45780;-78
2022/05/19 13:33:18;;;;;;;;;2.00;2.00;;;;;;;;4933094;28;45645;-78
2022/05/19 13:35:43;;;;;;;;;3.75;2.25;;;;;;;;4932303;28;45930;-77
2022/05/19 13:38:19;;;;;;;;;3.00;3.00;;;;;;;;4933036;28;46054;-77
2022/05/19 13:40:45;;;;;;;;;1.25;1.00;;;;;;;;4916067;28;47224;-77
2022/05/19 13:43:13;;;;;;;;;3.00;2.50;;;;;;;;4915638;28;45779;-82
2022/05/19 13:45:46;;;;;;;;;5.75;4.25;;;;;;;;4917105;28;45747;-78
2022/05/19 13:48:30;;;;;;;;;1.75;1.75;;;;;;;;4929999;28;45666;-81
2022/05/19 13:50:56;;;;;;;;;2.25;1.75;;;;;;;;4934480;28;46546;-82
2022/05/19 13:53:22;;;;;;;;;1.00;1.00;;;;;;;;4932807;28;45753;-82
2022/05/19 13:55:54;;;;;;;;;1.00;1.00;;;;;;;;4917280;28;45475;-79
2022/05/19 13:58:21;;;;;;;;;2.75;2.00;;;;;;;;4928925;28;45482;-77
2022/05/19 14:00:47;;;;;;;;;0.75;0.75;;;;;;;;4931856;28;47009;-77
2022/05/19 14:03:13;;;;;;;;;2.25;2.25;;;;;;;;4915692;28;45748;-77
2022/05/19 14:05:40;;;;;;;;;1.00;1.00;;;;;;;;4916300;28;45848;-78
2022/05/19 14:08:10;;;;;;;;;2.00;1.00;;;;;;;;4934147;28;45440;-81
2022/05/19 14:10:41;;;;;;;;;2.50;2.50;;;;;;;;4920247;28;47439;-80
2022/05/19 14:13:06;;;;;;;;;3.25;2.00;;;;;;;;4941426;28;45894;-81
2022/05/19 14:15:34;;;;;;;;;6.00;3.00;;;;;;;;4941024;28;45459;-81
2022/05/19 14:18:02;;;;;;;;;2.75;2.00;;;;;;;;4938406;28;45571;-80
2022/05/19 14:20:30;;;;;;;;;2.00;2.00;;;;;;;;4929872;28;45814;-80
2022/05/19 14:22:57;;;;;;;;;3.00;2.00;;;;;;;;4922070;28;45434;-78
2022/05/19 14:25:24;;;;;;;;;3.00;3.00;;;;;;;;4930289;28;45695;-79
2022/05/19 14:27:57;;;;;;;;;1.75;1.75;;;;;;;;4930321;28;45932;-77
2022/05/19 14:30:27;;;;;;;;;2.00;2.00;;;;;;;;4933049;28;45803;-78
2022/05/19 14:33:03;;;;;;;;;1.25;1.25;;;;;;;;4931652;28;45728;-79
2022/05/19 14:35:37;;;;;;;;;2.00;2.00;;;;;;;;4920021;28;45536;-80
2022/05/19 14:38:04;;;;;;;;;2.00;2.00;;;;;;;;4915369;28;46271;-78
2022/05/19 14:43:22;;;;;;;;;1.75;1.75;;;;;;;;4927791;28;45815;-79
2022/05/19 14:45:49;;;;;;;;;2.50;1.50;;;;;;;;4922737;28;45522;-87
2022/05/19 14:48:36;;;;;;;;;1.00;1.00;;;;;;;;4923526;28;45577;-78
2022/05/19 14:51:02;;;;;;;;;2.00;2.00;;;;;;;;4918276;28;46481;-79
2022/05/19 14:53:28;;;;;;;;;1.50;1.50;;;;;;;;4936665;28;45734;-83
2022/05/19 14:56:02;;;;;;;;;1.50;1.50;;;;;;;;4925897;28;45734;-83
2022/05/19 14:58:34;;;;;;;;;1.50;1.50;;;;;;;;4948424;28;45388;-82
2022/05/19 15:01:00;;;;;;;;;2.00;2.00;;;;;;;;4949041;28;47082;-81
2022/05/19 15:03:25;;;;;;;;;1.00;1.00;;;;;;;;4935931;28;45500;-80
2022/05/19 15:05:52;;;;;;;;;1.75;1.75;;;;;;;;4922413;28;45209;-82
2022/05/19 15:08:17;;;;;;;;;1.00;1.00;;;;;;;;4932675;28;45474;-78
2022/05/19 15:10:43;;;;;;;;;3.00;2.00;;;;;;;;4933543;28;46037;-77
2022/05/19 15:13:08;;;;;;;;;1.00;1.00;;;;;;;;4911900;28;45769;-76